Time;durP1;ratioP1;P1;durP2;ratioP2;P2;SDS_P1;SDS_P2;PMS_P1;PMS_P2;Temp;Humidity;BMP_temperature;BMP_pressure;BME280_temperature;BME280_humidity;BME280_pressure;Samples;Min_cycle;Max_cycle;Signal;HPM_P1;HPM_P2
2023/07/24 00:00:15;;;;;;;;;;;18.00;99.90;;;;;;5033369;28;19964;-79
2023/07/24 00:02:40;;;;;;;;;;;18.00;99.90;;;;;;5019114;28;19928;-80
2023/07/24 00:05:06;;;;;;;;;;;18.00;99.90;;;;;;5035857;28;19924;-79
2023/07/24 00:07:32;;;;;;;;;;;18.00;99.90;;;;;;5018688;28;19964;-79
2023/07/24 00:09:57;;;;;;;;;;;18.00;99.90;;;;;;5002471;28;20293;-80
2023/07/24 00:12:23;;;;;;;;;;;18.00;99.90;;;;;;5022308;28;19962;-79
2023/07/24 00:14:49;;;;;;;;;;;18.00;99.90;;;;;;5036910;28;19940;-80
2023/07/24 00:17:14;;;;;;;;;;;18.00;99.90;;;;;;5036772;28;19956;-80
2023/07/24 00:19:40;;;;;;;;;;;18.00;99.90;;;;;;5038867;28;19932;-79
2023/07/24 00:22:06;;;;;;;;;;;17.90;99.90;;;;;;5038838;28;19940;-79
2023/07/24 00:24:32;;;;;;;;;;;17.90;99.90;;;;;;5036802;28;19928;-79
2023/07/24 00:26:57;;;;;;;;;;;17.90;99.90;;;;;;5038951;28;19939;-79
2023/07/24 00:29:23;;;;;;;;;;;17.90;99.90;;;;;;5038454;28;19933;-79
2023/07/24 00:31:49;;;;;;;;;;;17.80;99.90;;;;;;5036933;28;19925;-79
2023/07/24 00:34:14;;;;;;;;;;;17.80;99.90;;;;;;5037278;28;19928;-80
2023/07/24 00:36:40;;;;;;;;;;;17.80;99.90;;;;;;5039201;28;19925;-79
2023/07/24 00:39:06;;;;;;;;;;;17.70;99.90;;;;;;5038782;28;19932;-79
2023/07/24 00:41:31;;;;;;;;;;;17.70;99.90;;;;;;5036459;28;19929;-79
2023/07/24 00:43:57;;;;;;;;;;;17.70;99.90;;;;;;5034737;28;19936;-78
2023/07/24 00:46:23;;;;;;;;;;;17.70;99.90;;;;;;5035170;28;20034;-79
2023/07/24 00:48:49;;;;;;;;;;;17.70;99.90;;;;;;5037251;28;19982;-80
2023/07/24 00:51:15;;;;;;;;;;;17.70;99.90;;;;;;5037163;28;19978;-79
2023/07/24 00:53:41;;;;;;;;;;;17.70;99.90;;;;;;5036783;28;19929;-79
2023/07/24 00:56:06;;;;;;;;;;;17.70;99.90;;;;;;5019149;28;19940;-79
2023/07/24 00:58:33;;;;;;;;;;;17.70;99.90;;;;;;5026605;28;19928;-78
2023/07/24 01:00:59;;;;;;;;;;;17.70;99.90;;;;;;5039485;28;19976;-78
2023/07/24 01:03:31;;;;;;;;;;;17.80;99.90;;;;;;5037694;28;20401;-78
2023/07/24 01:05:56;;;;;;;;;;;17.80;99.90;;;;;;5023915;28;20987;-79
2023/07/24 01:08:22;;;;;;;;;;;17.80;99.90;;;;;;5033555;28;21653;-78
2023/07/24 01:10:48;;;;;;;;;;;17.80;99.90;;;;;;5018040;28;20002;-79
2023/07/24 01:13:13;;;;;;;;;;;17.80;99.90;;;;;;5006877;28;19929;-80
2023/07/24 01:15:44;;;;;;;;;;;17.80;99.90;;;;;;5033105;28;19929;-79
2023/07/24 01:18:10;;;;;;;;;;;17.80;99.90;;;;;;5048303;28;20054;-79
2023/07/24 01:20:37;;;;;;;;;;;17.90;99.90;;;;;;5032920;28;19931;-79
2023/07/24 01:23:14;;;;;;;;;;;17.90;99.90;;;;;;5034436;28;19941;-79
2023/07/24 01:25:51;;;;;;;;;;;17.90;99.90;;;;;;5034551;28;20024;-79
2023/07/24 01:28:17;;;;;;;;;;;17.90;99.90;;;;;;5050307;28;20281;-80
2023/07/24 01:30:42;;;;;;;;;;;17.90;99.90;;;;;;5017735;28;20022;-79
2023/07/24 01:33:08;;;;;;;;;;;17.90;99.90;;;;;;5005460;28;20287;-79
2023/07/24 01:35:33;;;;;;;;;;;17.90;99.90;;;;;;5036575;28;19928;-79
2023/07/24 01:38:00;;;;;;;;;;;17.90;99.90;;;;;;5034325;28;19925;-80
2023/07/24 01:40:25;;;;;;;;;;;17.90;99.90;;;;;;5034145;28;19935;-80
2023/07/24 01:42:51;;;;;;;;;;;17.90;99.90;;;;;;5034622;28;19925;-81
2023/07/24 01:45:17;;;;;;;;;;;17.90;99.90;;;;;;5017746;28;19925;-80
2023/07/24 01:47:43;;;;;;;;;;;17.90;99.90;;;;;;5033966;28;19983;-80
2023/07/24 01:50:08;;;;;;;;;;;17.90;99.90;;;;;;5032598;28;19936;-78
2023/07/24 01:52:34;;;;;;;;;;;17.90;99.90;;;;;;5034917;28;20354;-79
2023/07/24 01:55:00;;;;;;;;;;;17.90;99.90;;;;;;5049238;28;19929;-80
2023/07/24 01:57:25;;;;;;;;;;;17.90;99.90;;;;;;5037257;28;20331;-80
2023/07/24 01:59:51;;;;;;;;;;;17.90;99.90;;;;;;5053976;28;19936;-79
2023/07/24 02:02:16;;;;;;;;;;;17.90;99.90;;;;;;5020344;28;19971;-79
2023/07/24 02:04:42;;;;;;;;;;;17.90;99.90;;;;;;5035150;28;20556;-79
2023/07/24 02:07:08;;;;;;;;;;;17.90;99.90;;;;;;5023705;28;19933;-80
2023/07/24 02:09:34;;;;;;;;;;;17.90;99.90;;;;;;5037830;28;20402;-81
2023/07/24 02:12:01;;;;;;;;;;;17.90;99.90;;;;;;5021067;28;19929;-80
2023/07/24 02:14:27;;;;;;;;;;;17.90;99.90;;;;;;5037610;28;19921;-80
2023/07/24 02:16:53;;;;;;;;;;;17.90;99.90;;;;;;5038335;28;19940;-80
2023/07/24 02:19:19;;;;;;;;;;;17.90;99.90;;;;;;5038990;28;19932;-80
2023/07/24 02:21:44;;;;;;;;;;;18.00;99.90;;;;;;5036792;28;20020;-80
2023/07/24 02:24:10;;;;;;;;;;;17.90;99.90;;;;;;5052595;28;20062;-80
2023/07/24 02:26:36;;;;;;;;;;;17.90;99.90;;;;;;5022559;28;19929;-81
2023/07/24 02:29:01;;;;;;;;;;;17.90;99.90;;;;;;5041249;28;19933;-80
2023/07/24 02:31:27;;;;;;;;;;;17.90;99.90;;;;;;5037882;28;19928;-80
2023/07/24 02:33:53;;;;;;;;;;;17.90;99.90;;;;;;5038830;28;19936;-80
2023/07/24 02:36:18;;;;;;;;;;;18.00;99.90;;;;;;5020637;28;19933;-80
2023/07/24 02:38:45;;;;;;;;;;;17.90;99.90;;;;;;5038346;28;19928;-80
2023/07/24 02:41:11;;;;;;;;;;;17.90;99.90;;;;;;5038012;28;20268;-80
2023/07/24 02:43:36;;;;;;;;;;;17.90;99.90;;;;;;5004181;28;19925;-80
2023/07/24 02:46:02;;;;;;;;;;;17.90;99.90;;;;;;5019561;28;19929;-80
2023/07/24 02:48:28;;;;;;;;;;;17.90;99.90;;;;;;5035622;28;19956;-80
2023/07/24 02:50:53;;;;;;;;;;;17.90;99.90;;;;;;5019304;28;20527;-80
2023/07/24 02:53:19;;;;;;;;;;;18.00;99.90;;;;;;5035375;28;20035;-79
2023/07/24 02:55:45;;;;;;;;;;;17.90;99.90;;;;;;5037238;28;19925;-80
2023/07/24 02:58:12;;;;;;;;;;;17.90;99.90;;;;;;5034245;28;19929;-80
2023/07/24 03:00:37;;;;;;;;;;;17.90;99.90;;;;;;5019860;28;19927;-81
2023/07/24 03:03:03;;;;;;;;;;;17.90;99.90;;;;;;5037380;28;20372;-80
2023/07/24 03:05:29;;;;;;;;;;;17.90;99.90;;;;;;5037812;28;19958;-80
2023/07/24 03:07:54;;;;;;;;;;;17.90;99.90;;;;;;5035268;28;20421;-80
2023/07/24 03:10:20;;;;;;;;;;;17.90;99.90;;;;;;5023895;28;19929;-80
2023/07/24 03:12:45;;;;;;;;;;;17.90;99.90;;;;;;5054955;28;20365;-80
2023/07/24 03:15:11;;;;;;;;;;;17.90;99.90;;;;;;5021047;28;19975;-80
2023/07/24 03:17:37;;;;;;;;;;;17.90;99.90;;;;;;5038685;28;20982;-79
2023/07/24 03:20:10;;;;;;;;;;;17.90;99.90;;;;;;5020843;28;20035;-79
2023/07/24 03:22:35;;;;;;;;;;;17.90;99.90;;;;;;5036891;28;19936;-79
2023/07/24 03:25:01;;;;;;;;;;;17.90;99.90;;;;;;5035071;28;19925;-78
2023/07/24 03:27:27;;;;;;;;;;;17.90;99.90;;;;;;5036441;28;19925;-79
2023/07/24 03:29:52;;;;;;;;;;;17.90;99.90;;;;;;5036411;28;20380;-79
2023/07/24 03:32:18;;;;;;;;;;;17.90;99.90;;;;;;5003256;28;20045;-79
2023/07/24 03:34:43;;;;;;;;;;;17.90;99.90;;;;;;5036789;28;19929;-79
2023/07/24 03:37:09;;;;;;;;;;;17.90;99.90;;;;;;5034650;28;19924;-80
2023/07/24 03:39:34;;;;;;;;;;;17.90;99.90;;;;;;5017922;28;19936;-79
2023/07/24 03:42:00;;;;;;;;;;;17.90;99.90;;;;;;5033968;28;19932;-79
2023/07/24 03:44:26;;;;;;;;;;;17.90;99.90;;;;;;5035689;28;19936;-80
2023/07/24 03:46:51;;;;;;;;;;;17.90;99.90;;;;;;5018538;28;19928;-80
2023/07/24 03:49:17;;;;;;;;;;;17.90;99.90;;;;;;5017359;28;19933;-80
2023/07/24 03:51:42;;;;;;;;;;;17.90;99.90;;;;;;5033278;28;19952;-80
2023/07/24 03:54:08;;;;;;;;;;;17.90;99.90;;;;;;5018850;28;19928;-80
2023/07/24 03:56:33;;;;;;;;;;;17.90;99.90;;;;;;5018919;28;19924;-80
2023/07/24 03:58:59;;;;;;;;;;;17.90;99.90;;;;;;5034975;28;19940;-80
2023/07/24 04:01:25;;;;;;;;;;;17.90;99.90;;;;;;5034396;28;19932;-80
2023/07/24 04:03:51;;;;;;;;;;;17.90;99.90;;;;;;5033776;28;19932;-80
2023/07/24 04:06:16;;;;;;;;;;;17.90;99.90;;;;;;5018186;28;19978;-80
2023/07/24 04:08:42;;;;;;;;;;;17.90;99.90;;;;;;5033412;28;19929;-79
2023/07/24 04:11:07;;;;;;;;;;;17.80;99.90;;;;;;5036253;28;20496;-79
2023/07/24 04:13:33;;;;;;;;;;;17.80;99.90;;;;;;5034947;28;19932;-80
2023/07/24 04:15:59;;;;;;;;;;;17.90;99.90;;;;;;5032138;28;19932;-80
2023/07/24 04:18:24;;;;;;;;;;;17.90;99.90;;;;;;5035602;28;19983;-80
2023/07/24 04:20:50;;;;;;;;;;;17.90;99.90;;;;;;5033666;28;19921;-81
2023/07/24 04:23:16;;;;;;;;;;;17.90;99.90;;;;;;5034115;28;21687;-79
2023/07/24 04:25:41;;;;;;;;;;;17.90;99.90;;;;;;5016377;28;19933;-79
2023/07/24 04:28:07;;;;;;;;;;;17.90;99.90;;;;;;5016342;28;19935;-79
2023/07/24 04:30:32;;;;;;;;;;;17.90;99.90;;;;;;5031991;28;19951;-79
2023/07/24 04:32:58;;;;;;;;;;;17.90;99.90;;;;;;5033157;28;20027;-80
2023/07/24 04:35:23;;;;;;;;;;;17.90;99.90;;;;;;4999174;28;19929;-80
2023/07/24 04:37:51;;;;;;;;;;;17.90;99.90;;;;;;5031995;28;20015;-77
2023/07/24 04:40:16;;;;;;;;;;;17.90;99.90;;;;;;5036639;28;19932;-77
2023/07/24 04:42:42;;;;;;;;;;;17.90;99.90;;;;;;5032557;28;19932;-78
2023/07/24 04:45:08;;;;;;;;;;;17.90;99.90;;;;;;5030675;28;20398;-77
2023/07/24 04:47:33;;;;;;;;;;;17.90;99.90;;;;;;5034206;28;19929;-77
2023/07/24 04:49:59;;;;;;;;;;;17.90;99.90;;;;;;5033810;28;20299;-77
2023/07/24 04:52:24;;;;;;;;;;;17.90;99.90;;;;;;5033456;28;19939;-76
2023/07/24 04:54:50;;;;;;;;;;;17.90;99.90;;;;;;5033812;28;19933;-76
2023/07/24 04:57:16;;;;;;;;;;;17.90;99.90;;;;;;5020494;28;20618;-77
2023/07/24 04:59:41;;;;;;;;;;;17.90;99.90;;;;;;5032531;28;19929;-77
2023/07/24 05:02:07;;;;;;;;;;;17.90;99.90;;;;;;5047555;28;19933;-77
2023/07/24 05:04:33;;;;;;;;;;;17.90;99.90;;;;;;5033459;28;19929;-77
2023/07/24 05:06:58;;;;;;;;;;;17.90;99.90;;;;;;5031940;28;20364;-79
2023/07/24 05:09:24;;;;;;;;;;;17.90;99.90;;;;;;5015574;28;19926;-76
2023/07/24 05:11:49;;;;;;;;;;;17.90;99.90;;;;;;5035595;28;20029;-76
2023/07/24 05:14:15;;;;;;;;;;;17.90;99.90;;;;;;5014822;28;19936;-76
2023/07/24 05:16:41;;;;;;;;;;;17.90;99.90;;;;;;5031348;28;19925;-77
2023/07/24 05:19:06;;;;;;;;;;;18.00;99.90;;;;;;5031442;28;19975;-80
2023/07/24 05:21:32;;;;;;;;;;;17.90;99.90;;;;;;5033795;28;19925;-77
2023/07/24 05:23:58;;;;;;;;;;;17.90;99.90;;;;;;5031040;28;19940;-77
2023/07/24 05:26:23;;;;;;;;;;;18.00;99.90;;;;;;5031824;28;19925;-78
2023/07/24 05:28:49;;;;;;;;;;;18.00;99.90;;;;;;5016365;28;20279;-77
2023/07/24 05:31:15;;;;;;;;;;;18.00;99.90;;;;;;5030591;28;19933;-78
2023/07/24 05:33:40;;;;;;;;;;;18.10;99.90;;;;;;5036519;28;19929;-76
2023/07/24 05:36:06;;;;;;;;;;;18.10;99.90;;;;;;5029632;28;20269;-77
2023/07/24 05:38:32;;;;;;;;;;;18.20;99.90;;;;;;5033841;28;19928;-77
2023/07/24 05:40:58;;;;;;;;;;;18.30;99.90;;;;;;5031783;28;19932;-77
2023/07/24 05:43:23;;;;;;;;;;;18.30;99.90;;;;;;5031835;28;19937;-76
2023/07/24 05:45:52;;;;;;;;;;;18.40;99.90;;;;;;5032481;28;19929;-78
2023/07/24 05:48:18;;;;;;;;;;;18.40;99.90;;;;;;5031535;28;20094;-77
2023/07/24 05:50:44;;;;;;;;;;;18.50;99.90;;;;;;5029248;28;19928;-76
2023/07/24 05:53:09;;;;;;;;;;;18.50;99.90;;;;;;5027354;28;19929;-78
2023/07/24 05:55:35;;;;;;;;;;;18.60;99.90;;;;;;5030542;28;20636;-77
2023/07/24 05:58:01;;;;;;;;;;;18.60;99.90;;;;;;5031479;28;19947;-77
2023/07/24 06:00:26;;;;;;;;;;;18.60;99.90;;;;;;5032901;28;20636;-77
2023/07/24 06:02:52;;;;;;;;;;;19.50;99.90;;;;;;5030311;28;20018;-76
2023/07/24 06:05:19;;;;;;;;;;;18.60;99.90;;;;;;5032170;28;20405;-77
2023/07/24 06:07:45;;;;;;;;;;;18.60;99.90;;;;;;5032672;28;20380;-77
2023/07/24 06:10:11;;;;;;;;;;;18.70;99.90;;;;;;5032730;28;19979;-77
2023/07/24 06:12:36;;;;;;;;;;;18.70;99.90;;;;;;5029377;28;20346;-77
2023/07/24 06:15:03;;;;;;;;;;;18.70;99.90;;;;;;5014458;28;19940;-78
2023/07/24 06:17:28;;;;;;;;;;;18.70;99.90;;;;;;5015381;28;19936;-75
2023/07/24 06:19:54;;;;;;;;;;;18.80;99.90;;;;;;5029392;28;20160;-75
2023/07/24 06:22:20;;;;;;;;;;;18.90;99.90;;;;;;5030753;28;19964;-76
2023/07/24 06:24:45;;;;;;;;;;;18.90;99.90;;;;;;5031195;28;19940;-75
2023/07/24 06:27:11;;;;;;;;;;;19.10;99.90;;;;;;5029021;28;19929;-77
2023/07/24 06:29:36;;;;;;;;;;;19.10;99.90;;;;;;5013290;28;19924;-75
2023/07/24 06:32:02;;;;;;;;;;;19.20;99.90;;;;;;5012747;28;20750;-75
2023/07/24 06:34:28;;;;;;;;;;;19.30;99.90;;;;;;5046887;28;20628;-76
2023/07/24 06:36:54;;;;;;;;;;;19.30;99.90;;;;;;5019881;28;19928;-76
2023/07/24 06:39:20;;;;;;;;;;;19.40;99.90;;;;;;5015005;28;19936;-77
2023/07/24 06:41:46;;;;;;;;;;;19.40;99.90;;;;;;5014383;28;19928;-77
2023/07/24 06:44:11;;;;;;;;;;;19.40;99.90;;;;;;5050814;28;20816;-76
2023/07/24 06:46:37;;;;;;;;;;;19.40;99.90;;;;;;5038786;28;20023;-76
2023/07/24 06:49:03;;;;;;;;;;;19.40;99.90;;;;;;5038911;28;19975;-77
2023/07/24 06:51:28;;;;;;;;;;;19.50;99.90;;;;;;5037297;28;19929;-78
2023/07/24 06:53:54;;;;;;;;;;;19.50;99.90;;;;;;5023604;28;20670;-78
2023/07/24 06:56:19;;;;;;;;;;;19.50;99.90;;;;;;5037819;28;19929;-77
2023/07/24 06:58:45;;;;;;;;;;;19.50;99.90;;;;;;5034982;28;20497;-76
2023/07/24 07:01:11;;;;;;;;;;;19.50;99.90;;;;;;5037167;28;20012;-73
2023/07/24 07:03:36;;;;;;;;;;;19.50;99.90;;;;;;5037048;28;20402;-74
2023/07/24 07:06:02;;;;;;;;;;;19.50;99.90;;;;;;5034175;28;19933;-74
2023/07/24 07:08:29;;;;;;;;;;;19.50;99.90;;;;;;5036823;28;20022;-74
2023/07/24 07:10:56;;;;;;;;;;;19.50;99.90;;;;;;5034799;28;19925;-74
2023/07/24 07:13:21;;;;;;;;;;;19.60;99.90;;;;;;5034316;28;19924;-74
2023/07/24 07:15:47;;;;;;;;;;;19.60;99.90;;;;;;5036287;28;19932;-75
2023/07/24 07:18:12;;;;;;;;;;;19.60;99.90;;;;;;5031852;28;19929;-74
2023/07/24 07:20:38;;;;;;;;;;;19.80;99.90;;;;;;5037793;28;19933;-74
2023/07/24 07:23:04;;;;;;;;;;;20.00;99.90;;;;;;5033924;28;20027;-75
2023/07/24 07:25:29;;;;;;;;;;;20.10;99.90;;;;;;5021338;28;19925;-74
2023/07/24 07:27:55;;;;;;;;;;;20.30;99.90;;;;;;5019351;28;20368;-75
2023/07/24 07:30:20;;;;;;;;;;;20.30;99.80;;;;;;5038454;28;20010;-75
2023/07/24 07:32:48;;;;;;;;;;;20.50;99.60;;;;;;5004015;28;19929;-74
2023/07/24 07:35:14;;;;;;;;;;;20.40;99.40;;;;;;5036518;28;19933;-74
2023/07/24 07:37:39;;;;;;;;;;;20.30;99.10;;;;;;5023416;28;19929;-74
2023/07/24 07:40:06;;;;;;;;;;;20.10;99.70;;;;;;5036929;28;20307;-75
2023/07/24 07:42:31;;;;;;;;;;;19.90;99.80;;;;;;5020525;28;20007;-73
2023/07/24 07:44:57;;;;;;;;;;;19.90;99.90;;;;;;5034587;28;20012;-75
2023/07/24 07:47:22;;;;;;;;;;;19.70;99.80;;;;;;5035171;28;19928;-75
2023/07/24 07:49:49;;;;;;;;;;;19.70;99.90;;;;;;5035267;28;21890;-76
2023/07/24 07:52:17;;;;;;;;;;;19.70;99.70;;;;;;5035543;28;19940;-74
2023/07/24 07:55:06;;;;;;;;;;;19.90;99.90;;;;;;5048109;28;21681;-75
2023/07/24 07:57:54;;;;;;;;;;;20.10;99.90;;;;;;5034077;28;19931;-76
2023/07/24 08:00:55;;;;;;;;;;;20.40;99.30;;;;;;5034211;28;21834;-75
2023/07/24 08:03:35;;;;;;;;;;;20.20;98.40;;;;;;5006612;28;20015;-75
2023/07/24 08:06:01;;;;;;;;;;;20.70;97.10;;;;;;5033326;28;20420;-81
2023/07/24 08:08:26;;;;;;;;;;;20.70;97.10;;;;;;5035034;28;19929;-80
2023/07/24 08:10:52;;;;;;;;;;;20.80;96.30;;;;;;5038331;28;19932;-79
2023/07/24 08:13:18;;;;;;;;;;;20.80;97.10;;;;;;5035114;28;19932;-79
2023/07/24 08:15:43;;;;;;;;;;;20.70;96.20;;;;;;5036108;28;19925;-79
2023/07/24 08:18:09;;;;;;;;;;;20.70;94.70;;;;;;5036604;28;20489;-80
2023/07/24 08:20:35;;;;;;;;;;;20.70;94.50;;;;;;5023679;28;19940;-81
2023/07/24 08:23:00;;;;;;;;;;;20.80;94.80;;;;;;5037837;28;19936;-81
2023/07/24 08:25:26;;;;;;;;;;;20.80;93.60;;;;;;5037476;28;19925;-80
2023/07/24 08:27:52;;;;;;;;;;;20.90;92.10;;;;;;5022752;28;20023;-80
2023/07/24 08:30:18;;;;;;;;;;;20.90;92.90;;;;;;5040267;28;19932;-78
2023/07/24 08:32:43;;;;;;;;;;;21.10;91.40;;;;;;5035985;28;19929;-76
2023/07/24 08:35:09;;;;;;;;;;;21.20;93.50;;;;;;5035835;28;19932;-74
2023/07/24 08:37:35;;;;;;;;;;;21.50;91.30;;;;;;5035558;28;20401;-74
2023/07/24 08:40:00;;;;;;;;;;;21.60;92.10;;;;;;5020835;28;19929;-75
2023/07/24 08:42:26;;;;;;;;;;;21.50;89.30;;;;;;5034155;28;21359;-74
2023/07/24 08:44:52;;;;;;;;;;;21.50;90.20;;;;;;5034706;28;19975;-75
2023/07/24 08:47:18;;;;;;;;;;;21.60;90.80;;;;;;5018693;28;20055;-75
2023/07/24 08:49:44;;;;;;;;;;;21.60;91.70;;;;;;5034520;28;19929;-74
2023/07/24 08:52:10;;;;;;;;;;;21.60;91.00;;;;;;5021317;28;19931;-77
2023/07/24 08:54:39;;;;;;;;;;;21.70;90.80;;;;;;5034867;28;20071;-78
2023/07/24 08:57:06;;;;;;;;;;;21.50;90.60;;;;;;5034381;28;19937;-78
2023/07/24 08:59:31;;;;;;;;;;;21.50;89.50;;;;;;5036085;28;20384;-75
2023/07/24 09:01:57;;;;;;;;;;;21.40;89.10;;;;;;5034859;28;20272;-77
2023/07/24 09:04:24;;;;;;;;;;;21.40;91.10;;;;;;5034624;28;20035;-76
2023/07/24 09:06:49;;;;;;;;;;;21.30;90.00;;;;;;5051324;28;19950;-77
2023/07/24 09:09:15;;;;;;;;;;;21.30;89.20;;;;;;5034878;28;19933;-76
2023/07/24 09:11:48;;;;;;;;;;;21.10;89.60;;;;;;5034044;28;19944;-77
2023/07/24 09:14:24;;;;;;;;;;;21.10;88.50;;;;;;5032775;28;20011;-74
2023/07/24 09:16:52;;;;;;;;;;;21.00;90.80;;;;;;5036652;28;20016;-75
2023/07/24 09:19:19;;;;;;;;;;;20.90;90.30;;;;;;5003707;28;19940;-75
2023/07/24 09:21:44;;;;;;;;;;;21.10;90.60;;;;;;5034520;28;20051;-77
2023/07/24 09:24:14;;;;;;;;;;;21.10;90.10;;;;;;5018375;28;19939;-74
2023/07/24 09:26:52;;;;;;;;;;;21.20;86.80;;;;;;5036885;28;19932;-78
2023/07/24 09:29:19;;;;;;;;;;;21.20;89.40;;;;;;5035965;28;19933;-78
2023/07/24 09:31:45;;;;;;;;;;;21.20;88.80;;;;;;5035157;28;20020;-77
2023/07/24 09:34:15;;;;;;;;;;;21.30;87.90;;;;;;5033734;28;19929;-76
2023/07/24 09:36:40;;;;;;;;;;;21.60;87.90;;;;;;5036358;28;19933;-78
2023/07/24 09:39:10;;;;;;;;;;;22.00;86.10;;;;;;5036451;28;19928;-78
2023/07/24 09:41:36;;;;;;;;;;;22.20;84.30;;;;;;5053193;28;19983;-79
2023/07/24 09:44:01;;;;;;;;;;;22.40;82.10;;;;;;5036631;28;19956;-79
2023/07/24 09:46:31;;;;;;;;;;;22.60;81.20;;;;;;5034554;28;19968;-76
2023/07/24 09:48:57;;;;;;;;;;;22.90;78.00;;;;;;5035126;28;19936;-78
2023/07/24 09:51:23;;;;;;;;;;;23.20;78.80;;;;;;5035440;28;19933;-77
2023/07/24 09:53:54;;;;;;;;;;;23.30;69.40;;;;;;5019194;28;21556;-78
2023/07/24 09:56:20;;;;;;;;;;;23.20;72.70;;;;;;5035505;28;19932;-76
2023/07/24 09:58:48;;;;;;;;;;;23.00;76.40;;;;;;5024824;28;19929;-77
2023/07/24 10:01:15;;;;;;;;;;;22.70;77.20;;;;;;5050100;28;20402;-78
2023/07/24 10:03:49;;;;;;;;;;;22.00;75.80;;;;;;5034176;28;20298;-77
2023/07/24 10:06:17;;;;;;;;;;;22.20;73.90;;;;;;5032348;28;19925;-79
2023/07/24 10:08:43;;;;;;;;;;;22.00;74.80;;;;;;5033328;28;19924;-78
2023/07/24 10:11:10;;;;;;;;;;;21.90;77.90;;;;;;5035177;28;19932;-77
2023/07/24 10:13:36;;;;;;;;;;;21.90;77.30;;;;;;5033695;28;19936;-79
2023/07/24 10:16:04;;;;;;;;;;;21.70;74.40;;;;;;5049737;28;19928;-78
2023/07/24 10:18:30;;;;;;;;;;;21.60;76.20;;;;;;5037261;28;20295;-75
2023/07/24 10:21:14;;;;;;;;;;;21.20;79.20;;;;;;5036435;28;20303;-76
2023/07/24 10:23:42;;;;;;;;;;;21.60;78.50;;;;;;5036332;28;19936;-75
2023/07/24 10:26:07;;;;;;;;;;;21.50;75.80;;;;;;5004619;28;19925;-74
2023/07/24 10:28:40;;;;;;;;;;;21.50;73.80;;;;;;5036479;28;19943;-75
2023/07/24 10:31:18;;;;;;;;;;;21.60;74.30;;;;;;5036847;28;19955;-74
2023/07/24 10:33:45;;;;;;;;;;;21.70;75.60;;;;;;5033374;28;20441;-76
2023/07/24 10:36:13;;;;;;;;;;;21.80;71.80;;;;;;5019555;28;19932;-76
2023/07/24 10:38:39;;;;;;;;;;;22.00;70.10;;;;;;5038843;28;20036;-77
2023/07/24 10:41:06;;;;;;;;;;;21.90;67.00;;;;;;5040592;28;20023;-78
2023/07/24 10:43:40;;;;;;;;;;;22.10;69.20;;;;;;5020740;28;19929;-75
2023/07/24 10:46:06;;;;;;;;;;;22.20;66.70;;;;;;5043135;28;19925;-75
2023/07/24 10:48:32;;;;;;;;;;;22.30;66.20;;;;;;5037447;28;19936;-77
2023/07/24 10:50:57;;;;;;;;;;;22.10;66.20;;;;;;5020754;28;19940;-77
2023/07/24 10:53:23;;;;;;;;;;;22.00;63.40;;;;;;5039237;28;19928;-77
2023/07/24 10:55:52;;;;;;;;;;;21.80;65.00;;;;;;5038655;28;19929;-78
2023/07/24 10:58:18;;;;;;;;;;;21.60;63.20;;;;;;5037385;28;20035;-77
2023/07/24 11:00:44;;;;;;;;;;;21.30;64.70;;;;;;5045383;28;20011;-76
2023/07/24 11:03:13;;;;;;;;;;;21.20;66.70;;;;;;5046867;28;19929;-77
2023/07/24 11:05:42;;;;;;;;;;;21.00;67.00;;;;;;5042901;28;20023;-77
2023/07/24 11:08:19;;;;;;;;;;;20.90;68.70;;;;;;5039939;28;19929;-76
2023/07/24 11:10:49;;;;;;;;;;;20.80;71.10;;;;;;5039722;28;20020;-77
2023/07/24 11:13:15;;;;;;;;;;;20.80;71.00;;;;;;5040353;28;19929;-76
2023/07/24 11:15:41;;;;;;;;;;;20.80;73.20;;;;;;5040963;28;19968;-78
2023/07/24 11:18:08;;;;;;;;;;;20.90;72.90;;;;;;5039281;28;19964;-79
2023/07/24 11:20:53;;;;;;;;;;;21.00;72.40;;;;;;5040153;28;19968;-78
2023/07/24 11:23:19;;;;;;;;;;;21.00;73.00;;;;;;5022478;28;19929;-76
2023/07/24 11:25:46;;;;;;;;;;;20.90;74.60;;;;;;5041625;28;19932;-77
2023/07/24 11:28:12;;;;;;;;;;;20.90;75.60;;;;;;5052910;28;19928;-77
2023/07/24 11:30:38;;;;;;;;;;;20.80;76.20;;;;;;5037682;28;19939;-77
2023/07/24 11:33:11;;;;;;;;;;;20.80;77.30;;;;;;5023547;28;20011;-76
2023/07/24 11:35:38;;;;;;;;;;;20.90;78.70;;;;;;5040366;28;20395;-76
2023/07/24 11:38:04;;;;;;;;;;;21.10;79.70;;;;;;5037995;28;19932;-77
2023/07/24 11:40:35;;;;;;;;;;;21.20;77.40;;;;;;5041448;28;19921;-76
2023/07/24 11:43:00;;;;;;;;;;;21.20;76.90;;;;;;5038555;28;19982;-76
2023/07/24 11:45:26;;;;;;;;;;;21.30;75.20;;;;;;5023016;28;19944;-77
2023/07/24 11:47:56;;;;;;;;;;;21.30;76.10;;;;;;5023509;28;20003;-77
2023/07/24 11:50:22;;;;;;;;;;;21.40;77.90;;;;;;5037173;28;20012;-77
2023/07/24 11:52:49;;;;;;;;;;;21.40;76.50;;;;;;5039547;28;20304;-77
2023/07/24 11:55:15;;;;;;;;;;;21.40;78.70;;;;;;5039679;28;19929;-76
2023/07/24 11:57:41;;;;;;;;;;;21.40;79.00;;;;;;5039265;28;19925;-77
2023/07/24 12:00:18;;;;;;;;;;;21.30;79.30;;;;;;5038849;28;19931;-76
2023/07/24 12:02:43;;;;;;;;;;;21.20;79.60;;;;;;5037398;28;19939;-76
2023/07/24 12:05:10;;;;;;;;;;;21.50;81.60;;;;;;5037791;28;19928;-76
2023/07/24 12:07:35;;;;;;;;;;;21.90;82.20;;;;;;5038780;28;19929;-76
2023/07/24 12:10:03;;;;;;;;;;;22.40;76.10;;;;;;5038461;28;19925;-76
2023/07/24 12:12:39;;;;;;;;;;;22.60;68.40;;;;;;5038720;28;19987;-75
2023/07/24 12:15:05;;;;;;;;;;;22.80;64.70;;;;;;5039698;28;20437;-76
2023/07/24 12:17:30;;;;;;;;;;;22.80;66.70;;;;;;5038151;28;20015;-76
2023/07/24 12:19:56;;;;;;;;;;;22.60;61.80;;;;;;5040239;28;19940;-76
2023/07/24 12:22:22;;;;;;;;;;;22.50;68.50;;;;;;5020591;28;19929;-77
2023/07/24 12:24:47;;;;;;;;;;;22.30;68.00;;;;;;5038282;28;20059;-76
2023/07/24 12:27:13;;;;;;;;;;;22.30;72.20;;;;;;5038799;28;20020;-76
2023/07/24 12:29:39;;;;;;;;;;;22.20;67.00;;;;;;5004395;28;20340;-75
2023/07/24 12:32:04;;;;;;;;;;;22.10;68.40;;;;;;5036261;28;20011;-74
2023/07/24 12:34:30;;;;;;;;;;;22.10;66.30;;;;;;5037334;28;19983;-75
2023/07/24 12:36:56;;;;;;;;;;;22.10;65.70;;;;;;5023950;28;20031;-75
2023/07/24 12:39:21;;;;;;;;;;;22.00;64.20;;;;;;5037883;28;19925;-75
2023/07/24 12:41:48;;;;;;;;;;;21.60;65.10;;;;;;5038970;28;20502;-74
2023/07/24 12:44:14;;;;;;;;;;;21.40;70.20;;;;;;5021194;28;20027;-76
2023/07/24 12:46:39;;;;;;;;;;;21.00;72.10;;;;;;5022433;28;19929;-76
2023/07/24 12:49:05;;;;;;;;;;;20.80;72.70;;;;;;5037127;28;19983;-76
2023/07/24 12:51:31;;;;;;;;;;;20.50;77.80;;;;;;5042113;28;19925;-75
2023/07/24 12:53:56;;;;;;;;;;;20.30;79.30;;;;;;5038318;28;19943;-76
2023/07/24 12:56:22;;;;;;;;;;;20.20;79.20;;;;;;5038210;28;20035;-75
2023/07/24 12:58:48;;;;;;;;;;;20.00;80.30;;;;;;5040257;28;19940;-75
2023/07/24 13:01:13;;;;;;;;;;;19.80;83.50;;;;;;5020521;28;20792;-75
2023/07/24 13:03:39;;;;;;;;;;;19.70;83.80;;;;;;5037977;28;19925;-76
2023/07/24 13:06:04;;;;;;;;;;;19.60;81.00;;;;;;5005394;28;21334;-75
2023/07/24 13:08:30;;;;;;;;;;;19.40;81.60;;;;;;5053173;28;19967;-76
2023/07/24 13:10:56;;;;;;;;;;;19.30;83.60;;;;;;5038483;28;20006;-76
2023/07/24 13:13:22;;;;;;;;;;;19.20;84.00;;;;;;5020840;28;19979;-75
2023/07/24 13:15:48;;;;;;;;;;;19.10;84.90;;;;;;5036741;28;20362;-75
2023/07/24 13:18:16;;;;;;;;;;;18.90;86.30;;;;;;5042127;28;19952;-75
2023/07/24 13:20:42;;;;;;;;;;;18.80;85.40;;;;;;5037863;28;20334;-78
2023/07/24 13:23:07;;;;;;;;;;;18.60;83.20;;;;;;5039124;28;19948;-78
2023/07/24 13:25:33;;;;;;;;;;;18.60;83.50;;;;;;5035188;28;19979;-76
2023/07/24 13:27:58;;;;;;;;;;;18.50;85.40;;;;;;5037434;28;20371;-77
2023/07/24 13:30:24;;;;;;;;;;;18.40;85.60;;;;;;5019647;28;19936;-77
2023/07/24 13:32:50;;;;;;;;;;;18.30;87.20;;;;;;5045141;28;19925;-77
2023/07/24 13:35:15;;;;;;;;;;;18.30;90.00;;;;;;5039228;28;19974;-77
2023/07/24 13:37:41;;;;;;;;;;;18.30;89.40;;;;;;5038386;28;19925;-78
2023/07/24 13:40:07;;;;;;;;;;;18.20;88.60;;;;;;5039386;28;19929;-75
2023/07/24 13:42:32;;;;;;;;;;;18.30;88.70;;;;;;5038631;28;19925;-77
2023/07/24 13:44:58;;;;;;;;;;;18.20;88.30;;;;;;5038334;28;20459;-77
2023/07/24 13:47:24;;;;;;;;;;;18.20;88.90;;;;;;5038594;28;20399;-75
2023/07/24 13:49:49;;;;;;;;;;;18.10;90.10;;;;;;5038764;28;20497;-76
2023/07/24 13:52:15;;;;;;;;;;;18.10;90.00;;;;;;5036567;28;19978;-74
2023/07/24 13:54:41;;;;;;;;;;;18.00;90.60;;;;;;5041499;28;19925;-76
2023/07/24 13:57:09;;;;;;;;;;;17.90;92.20;;;;;;5025078;28;19924;-75
2023/07/24 13:59:35;;;;;;;;;;;17.70;93.00;;;;;;5024221;28;20019;-75
2023/07/24 14:02:01;;;;;;;;;;;17.60;93.90;;;;;;5042146;28;19925;-75
2023/07/24 14:04:26;;;;;;;;;;;17.50;94.40;;;;;;5043953;28;19951;-76
2023/07/24 14:06:52;;;;;;;;;;;17.40;94.10;;;;;;5045936;28;19932;-76
2023/07/24 14:09:18;;;;;;;;;;;17.30;94.00;;;;;;5043913;28;19933;-76
2023/07/24 14:11:43;;;;;;;;;;;17.30;93.80;;;;;;5032457;28;19936;-76